Time;durP1;ratioP1;P1;durP2;ratioP2;P2;SDS_P1;SDS_P2;PMS_P1;PMS_P2;Temp;Humidity;BMP_temperature;BMP_pressure;BME280_temperature;BME280_humidity;BME280_pressure;Samples;Min_cycle;Max_cycle;Signal;HPM_P1;HPM_P2
2022/12/15 00:41:03;;;;;;;24.57;10.00;;;;;;;3.34;38.05;100467.59;4916800;29;20053;-60
2022/12/15 00:43:31;;;;;;;28.53;11.80;;;;;;;3.34;37.76;100478.19;4882844;29;20036;-60
2022/12/15 00:48:41;;;;;;;22.53;11.03;;;;;;;3.28;37.60;100483.84;4917234;29;20125;-60
2022/12/15 00:51:07;;;;;;;20.93;10.30;;;;;;;3.27;37.49;100488.28;4899724;29;20037;-60
2022/12/15 01:21:04;;;;;;;25.53;11.10;;;;;;;3.02;38.50;100516.25;4906746;29;20073;-60
2022/12/15 01:23:31;;;;;;;24.77;11.53;;;;;;;2.98;37.86;100504.16;4905381;29;20082;-60
2022/12/15 01:25:56;;;;;;;26.43;10.60;;;;;;;3.02;37.94;100509.19;4890057;29;20093;-60
2022/12/15 01:28:23;;;;;;;32.03;10.70;;;;;;;3.01;37.46;100517.22;4905034;29;20048;-60
2022/12/15 01:30:48;;;;;;;29.87;11.30;;;;;;;3.01;39.04;100522.50;4920558;29;20031;-60
2022/12/15 01:33:15;;;;;;;28.53;11.73;;;;;;;3.02;38.50;100526.84;4904596;29;20056;-59
2022/12/15 01:35:41;;;;;;;36.57;10.90;;;;;;;3.03;37.99;100531.19;4888663;29;20025;-60
2022/12/15 01:38:07;;;;;;;30.07;10.60;;;;;;;3.01;38.16;100517.22;4905459;29;20566;-60
2022/12/15 01:40:45;;;;;;;33.77;10.70;;;;;;;3.02;38.16;100524.19;4904679;29;20052;-59
2022/12/15 01:43:18;;;;;;;25.57;11.17;;;;;;;3.00;37.89;100531.38;4890379;29;20028;-60
2022/12/15 01:45:53;;;;;;;30.13;11.40;;;;;;;2.97;38.73;100524.47;4904667;29;20043;-60
2022/12/15 01:48:32;;;;;;;27.20;11.37;;;;;;;2.94;39.00;100532.59;4904103;29;20041;-60
2022/12/15 01:51:02;;;;;;;31.87;10.73;;;;;;;2.93;38.19;100531.72;4904244;29;20029;-60
2022/12/15 01:53:32;;;;;;;27.43;11.17;;;;;;;2.90;37.77;100531.91;4920578;29;20105;-60
2022/12/15 01:55:57;;;;;;;26.83;10.97;;;;;;;2.92;37.68;100535.34;4905221;29;20025;-60
2022/12/15 01:58:23;;;;;;;22.70;10.53;;;;;;;2.90;38.62;100539.84;4903884;29;20036;-60
2022/12/15 02:00:48;;;;;;;21.00;9.40;;;;;;;2.86;38.66;100530.38;4904001;29;20053;-59
2022/12/15 02:03:14;;;;;;;30.93;10.23;;;;;;;2.87;37.97;100534.75;4903853;29;20057;-59
2022/12/15 02:05:40;;;;;;;33.03;11.23;;;;;;;2.85;37.79;100530.47;4887500;29;20039;-60
2022/12/15 02:08:06;;;;;;;25.97;11.47;;;;;;;2.85;38.43;100528.66;4902586;29;20040;-60
2022/12/15 02:11:00;;;;;;;27.67;10.30;;;;;;;2.85;39.08;100531.31;4902947;29;20089;-60
2022/12/15 02:13:36;;;;;;;22.90;10.33;;;;;;;2.82;38.98;100528.03;4916195;29;20035;-60
2022/12/15 02:16:40;;;;;;;29.67;11.87;;;;;;;2.84;37.83;100527.00;4902067;29;20033;-60
2022/12/15 02:19:17;;;;;;;28.67;11.23;;;;;;;2.84;38.25;100529.63;4897638;29;20041;-60
2022/12/15 02:22:24;;;;;;;33.57;13.17;;;;;;;2.82;39.16;100518.28;4885020;29;20155;-60
2022/12/15 02:25:11;;;;;;;23.33;8.93;;;;;;;2.82;38.78;100528.84;4912410;29;20048;-60
2022/12/15 02:28:08;;;;;;;25.73;10.00;;;;;;;2.79;37.68;100534.31;4896704;29;20109;-59
2022/12/15 02:30:38;;;;;;;22.00;10.60;;;;;;;2.79;37.91;100534.31;4885048;29;20036;-60
2022/12/15 02:33:12;;;;;;;18.37;8.93;;;;;;;2.79;38.84;100529.03;4903551;29;20044;-59
2022/12/15 02:35:46;;;;;;;28.27;10.40;;;;;;;2.79;37.47;100534.31;4887673;29;20013;-59
2022/12/15 02:38:12;;;;;;;25.40;9.73;;;;;;;2.79;38.15;100528.19;4885929;29;20048;-61
2022/12/15 02:40:38;;;;;;;34.10;11.63;;;;;;;2.76;38.56;100523.06;4888687;29;20092;-60
2022/12/15 02:43:05;;;;;;;28.90;10.17;;;;;;;2.80;39.19;100528.09;4904766;29;20032;-59
2022/12/15 02:45:35;;;;;;;24.83;11.87;;;;;;;2.79;37.93;100534.31;4905335;29;20044;-60
2022/12/15 02:48:12;;;;;;;24.30;9.43;;;;;;;2.80;39.04;100536.03;4905172;29;20036;-60
2022/12/15 02:50:50;;;;;;;21.17;10.23;;;;;;;2.78;38.70;100548.50;4900102;29;20044;-60
2022/12/15 02:53:21;;;;;;;25.53;9.77;;;;;;;2.79;39.30;100544.88;4902022;29;20028;-60
2022/12/15 02:56:03;;;;;;;30.97;11.50;;;;;;;2.74;38.29;100541.66;4902035;29;20029;-59
2022/12/15 02:59:00;;;;;;;28.77;10.70;;;;;;;2.79;37.89;100555.47;4902408;29;20033;-60
2022/12/15 03:01:28;;;;;;;27.27;10.83;;;;;;;2.78;38.63;100552.91;4886818;29;20040;-59
2022/12/15 03:03:54;;;;;;;23.53;11.10;;;;;;;2.77;38.20;100556.50;4892455;29;20060;-59
2022/12/15 03:06:19;;;;;;;22.50;11.27;;;;;;;2.77;39.21;100546.78;4907514;29;20069;-59
2022/12/15 03:08:45;;;;;;;24.50;10.60;;;;;;;2.78;38.95;100558.22;4890442;29;20033;-59
2022/12/15 03:11:10;;;;;;;25.47;10.40;;;;;;;2.77;38.38;100565.28;4908696;29;20032;-59
2022/12/15 03:13:36;;;;;;;21.07;9.93;;;;;;;2.78;38.09;100567.00;4907635;29;20028;-58
2022/12/15 03:16:01;;;;;;;21.47;11.83;;;;;;;2.80;38.60;100562.47;4889741;29;20036;-58
2022/12/15 03:18:26;;;;;;;24.30;10.60;;;;;;;2.78;38.71;100564.34;4874279;29;20044;-60
2022/12/15 03:20:52;;;;;;;25.60;10.53;;;;;;;2.81;38.59;100574.75;4874724;29;20032;-58
2022/12/15 03:23:18;;;;;;;30.60;11.40;;;;;;;2.80;38.06;100567.75;4907043;29;20084;-58
2022/12/15 03:25:44;;;;;;;25.57;10.27;;;;;;;2.79;39.34;100560.75;4872768;29;20100;-59
2022/12/15 03:28:10;;;;;;;21.70;9.93;;;;;;;2.81;39.44;100563.31;4887704;29;20049;-58
2022/12/15 03:30:35;;;;;;;24.47;10.43;;;;;;;2.78;37.90;100564.34;4888646;29;20048;-59
2022/12/15 03:33:01;;;;;;;27.97;11.13;;;;;;;2.75;38.68;100561.88;4887430;29;20049;-59
2022/12/15 03:35:26;;;;;;;25.40;11.40;;;;;;;2.74;37.72;100557.53;4887885;29;20036;-59
2022/12/15 03:37:52;;;;;;;26.20;10.93;;;;;;;2.76;39.50;100570.66;4872478;29;20037;-58
2022/12/15 03:40:17;;;;;;;28.63;10.03;;;;;;;2.75;38.10;100579.53;4872078;29;20070;-58
2022/12/15 03:42:49;;;;;;;22.47;9.87;;;;;;;2.71;38.13;100584.13;4888851;29;20562;-59
2022/12/15 03:45:21;;;;;;;40.15;11.73;;;;;;;2.71;39.56;100588.56;4888152;29;20052;-58
2022/12/15 03:47:47;;;;;;;23.70;10.83;;;;;;;2.71;38.34;100588.56;4873840;29;20033;-58
2022/12/15 03:50:14;;;;;;;30.87;11.70;;;;;;;2.73;38.51;100595.50;4887535;29;20085;-59
2022/12/15 03:52:40;;;;;;;28.17;10.87;;;;;;;2.69;38.17;100586.00;4856761;29;20087;-58
2022/12/15 03:55:06;;;;;;;36.97;10.77;;;;;;;2.74;37.78;100604.25;4855904;29;20044;-58
2022/12/15 03:57:32;;;;;;;21.87;9.83;;;;;;;2.74;39.11;100598.97;4857299;29;20037;-59
2022/12/15 03:59:57;;;;;;;25.27;9.70;;;;;;;2.72;39.22;100593.78;4887559;29;20510;-59
2022/12/15 04:02:22;;;;;;;20.37;10.43;;;;;;;2.70;38.45;100587.72;4841465;29;20031;-59
2022/12/15 04:04:48;;;;;;;28.30;12.23;;;;;;;2.69;39.52;100596.59;4888436;29;20458;-59
2022/12/15 04:07:14;;;;;;;29.90;11.87;;;;;;;2.71;38.73;100600.00;4856987;29;20033;-58
2022/12/15 04:09:39;;;;;;;24.50;10.13;;;;;;;2.69;39.07;100595.72;4855864;29;20036;-58
2022/12/15 04:12:05;;;;;;;27.27;11.00;;;;;;;2.70;39.09;100600.94;4856366;29;20101;-59
2022/12/15 04:14:30;;;;;;;24.53;11.33;;;;;;;2.66;38.77;100598.53;4886372;29;20048;-58
2022/12/15 04:16:56;;;;;;;25.80;10.87;;;;;;;2.69;39.29;100595.72;4872525;29;20065;-59
2022/12/15 04:22:05;;;;;;;25.70;9.77;;;;;;;2.63;38.14;100590.78;4877043;29;20046;-59
2022/12/15 05:32:52;;;;;;;34.40;12.13;;;;;;;2.65;39.35;100637.34;4889911;29;20074;-59
2022/12/15 05:35:18;;;;;;;30.90;11.47;;;;;;;2.69;39.56;100644.19;4886916;29;20032;-58
2022/12/15 05:37:43;;;;;;;31.67;12.80;;;;;;;2.69;38.57;100638.91;4887834;29;20076;-59
2022/12/15 05:40:09;;;;;;;23.70;11.07;;;;;;;2.73;39.86;100639.59;4871507;29;20037;-59
2022/12/15 05:42:34;;;;;;;38.20;10.97;;;;;;;2.73;39.00;100640.44;4871588;29;20109;-59
2022/12/15 05:45:00;;;;;;;33.93;11.60;;;;;;;2.74;38.40;100658.00;4887013;29;20066;-59
2022/12/15 05:47:25;;;;;;;31.20;11.97;;;;;;;2.76;40.21;100655.28;4887600;29;20408;-59
2022/12/15 05:49:50;;;;;;;30.43;13.00;;;;;;;2.76;39.02;100657.94;4885708;29;20041;-58
2022/12/15 05:52:16;;;;;;;34.47;14.13;;;;;;;2.79;39.74;100655.13;4884694;29;20040;-58
2022/12/15 05:54:41;;;;;;;36.90;13.57;;;;;;;2.81;39.35;100643.53;4870205;29;20037;-59
2022/12/15 05:57:07;;;;;;;28.67;11.87;;;;;;;2.82;38.45;100639.91;4885078;29;20421;-58
2022/12/15 05:59:32;;;;;;;29.13;12.23;;;;;;;2.86;38.54;100646.75;4884992;29;20100;-58
2022/12/15 06:01:58;;;;;;;41.73;12.43;;;;;;;2.87;39.65;100653.75;4889312;29;20040;-58
2022/12/15 06:04:23;;;;;;;30.37;12.07;;;;;;;2.87;39.75;100648.47;4890414;29;20033;-58
2022/12/15 06:06:48;;;;;;;28.37;11.27;;;;;;;2.90;39.88;100645.63;4890304;29;20044;-58
2022/12/15 06:09:14;;;;;;;42.00;12.30;;;;;;;2.91;40.07;100647.34;4873703;29;20507;-59
2022/12/15 06:11:40;;;;;;;33.67;12.73;;;;;;;2.96;39.79;100646.25;4889774;29;20110;-58
2022/12/15 06:14:05;;;;;;;33.90;13.27;;;;;;;2.99;39.08;100646.09;4891899;29;20097;-58
2022/12/15 06:16:31;;;;;;;34.70;12.67;;;;;;;3.01;40.34;100641.56;4890232;29;20111;-58
2022/12/15 06:18:58;;;;;;;29.17;11.87;;;;;;;3.02;39.56;100636.16;4890596;29;20054;-58
2022/12/15 06:21:26;;;;;;;32.17;11.47;;;;;;;3.08;40.28;100650.84;4890181;29;20105;-58
2022/12/15 06:23:52;;;;;;;25.73;12.20;;;;;;;3.08;40.38;100645.53;4875277;29;20041;-58
2022/12/15 06:26:25;;;;;;;32.13;13.00;;;;;;;3.10;39.24;100643.69;4874243;29;20133;-58
2022/12/15 06:28:51;;;;;;;29.95;11.25;;;;;;;3.12;40.07;100653.25;4891505;29;20024;-58
2022/12/15 06:31:19;;;;;;;30.13;12.27;;;;;;;3.12;39.78;100647.94;4891038;29;20034;-58
2022/12/15 06:33:44;;;;;;;26.23;12.47;;;;;;;3.09;39.56;100639.31;4891704;29;20550;-58
2022/12/15 06:36:12;;;;;;;36.40;12.80;;;;;;;3.11;39.79;100648.88;4890133;29;20033;-57
2022/12/15 06:38:38;;;;;;;27.90;10.70;;;;;;;3.08;39.23;100649.03;4893445;29;20386;-58
2022/12/15 06:41:05;;;;;;;30.93;11.80;;;;;;;3.03;39.73;100653.75;4882483;29;20072;-57
2022/12/15 06:43:31;;;;;;;34.43;12.40;;;;;;;3.03;38.67;100648.47;4913859;29;20037;-58
2022/12/15 06:45:58;;;;;;;31.53;12.07;;;;;;;3.03;38.74;100652.88;4877977;29;20119;-58
2022/12/15 06:48:23;;;;;;;31.37;12.13;;;;;;;2.99;38.60;100651.38;4892076;29;20068;-58
2022/12/15 06:50:49;;;;;;;30.33;10.97;;;;;;;2.96;39.21;100656.84;4907747;29;20024;-58
2022/12/15 06:53:16;;;;;;;23.10;11.47;;;;;;;2.93;39.38;100653.41;4891231;29;20403;-58
2022/12/15 06:55:42;;;;;;;19.90;10.93;;;;;;;2.91;39.24;100650.00;4876082;29;20483;-58
2022/12/15 06:58:08;;;;;;;24.83;11.27;;;;;;;2.87;39.67;100656.41;4891268;29;20145;-57
2022/12/15 07:00:35;;;;;;;30.23;11.40;;;;;;;2.85;39.99;100655.63;4890494;29;20056;-57
2022/12/15 07:03:01;;;;;;;27.77;11.43;;;;;;;2.78;39.13;100651.63;4874772;29;20447;-57
2022/12/15 07:05:26;;;;;;;29.17;12.03;;;;;;;2.79;40.24;100668.34;4874949;29;20410;-57
2022/12/15 07:07:52;;;;;;;27.03;11.57;;;;;;;2.75;40.06;100665.00;4907402;29;20028;-57
2022/12/15 07:10:17;;;;;;;29.83;11.93;;;;;;;2.74;39.06;100673.00;4874689;29;20033;-58
2022/12/15 07:12:43;;;;;;;30.77;10.93;;;;;;;2.73;39.99;100685.41;4906297;29;20040;-58
2022/12/15 07:15:10;;;;;;;24.57;11.27;;;;;;;2.70;39.02;100682.91;4908323;29;20127;-57
2022/12/15 07:17:35;;;;;;;27.90;10.00;;;;;;;2.69;38.82;100681.19;4891122;29;20037;-58
2022/12/15 07:20:05;;;;;;;29.27;11.43;;;;;;;2.66;39.42;100681.38;4891921;29;20395;-58
2022/12/15 07:22:30;;;;;;;23.20;11.37;;;;;;;2.66;38.91;100676.06;4890463;29;20049;-58
2022/12/15 07:24:56;;;;;;;24.13;10.57;;;;;;;2.69;40.19;100675.91;4890273;29;20384;-58
2022/12/15 07:27:21;;;;;;;25.63;11.50;;;;;;;2.69;38.76;100680.34;4890661;29;20059;-58
2022/12/15 07:29:47;;;;;;;23.07;11.40;;;;;;;2.70;39.17;100685.56;4890184;29;20111;-58
2022/12/15 07:32:12;;;;;;;26.70;11.13;;;;;;;2.71;40.19;100689.88;4905792;29;20128;-58
2022/12/15 07:34:37;;;;;;;29.10;11.90;;;;;;;2.74;38.64;100699.44;4889613;29;20028;-58
2022/12/15 07:37:03;;;;;;;37.03;11.63;;;;;;;2.75;38.76;100701.16;4890301;29;20177;-58
2022/12/15 07:39:28;;;;;;;29.67;11.27;;;;;;;2.75;39.32;100702.03;4889373;29;20043;-58
2022/12/15 07:41:54;;;;;;;27.47;10.53;;;;;;;2.72;39.62;100686.31;4874846;29;20047;-58
2022/12/15 07:44:19;;;;;;;29.03;11.53;;;;;;;2.73;38.73;100695.97;4889972;29;20084;-58
2022/12/15 07:46:47;;;;;;;34.30;12.20;;;;;;;2.74;38.93;100702.94;4874156;29;20036;-58
2022/12/15 07:49:13;;;;;;;26.23;11.30;;;;;;;2.72;40.20;100699.53;4891180;29;20036;-57
2022/12/15 07:51:40;;;;;;;23.03;10.07;;;;;;;2.70;39.01;100693.50;4889673;29;20499;-58
2022/12/15 07:54:05;;;;;;;30.13;12.30;;;;;;;2.73;39.75;100689.81;4889317;29;20040;-58
2022/12/15 07:56:30;;;;;;;22.57;11.10;;;;;;;2.77;39.97;100689.56;4873222;29;20117;-58
2022/12/15 07:58:56;;;;;;;26.20;11.20;;;;;;;2.80;39.02;100692.03;4858910;29;20048;-58
2022/12/15 08:01:21;;;;;;;25.97;12.17;;;;;;;2.82;39.93;100686.69;4905825;29;20084;-58
2022/12/15 08:03:47;;;;;;;21.47;10.83;;;;;;;2.80;39.05;100689.41;4873360;29;20040;-57
2022/12/15 08:06:13;;;;;;;30.77;11.33;;;;;;;2.83;40.10;100696.31;4873205;29;20043;-58
2022/12/15 08:08:39;;;;;;;29.47;12.13;;;;;;;2.85;40.03;100690.00;4889818;29;20040;-58
2022/12/15 08:11:05;;;;;;;32.57;11.07;;;;;;;2.87;38.87;100701.38;4889672;29;20479;-58
2022/12/15 08:13:32;;;;;;;21.40;11.53;;;;;;;2.88;39.11;100703.06;4858039;29;20032;-58
2022/12/15 08:15:58;;;;;;;26.67;9.87;;;;;;;2.86;39.05;100704.94;4906092;29;20041;-58
2022/12/15 08:18:23;;;;;;;28.40;11.73;;;;;;;2.89;38.64;100704.78;4888952;29;20566;-58
2022/12/15 08:20:48;;;;;;;34.00;12.97;;;;;;;2.90;39.78;100703.81;4888493;29;20056;-58
2022/12/15 08:23:14;;;;;;;27.13;12.20;;;;;;;2.91;39.84;100704.66;4888985;29;20036;-58
2022/12/15 08:25:39;;;;;;;25.37;12.03;;;;;;;2.92;38.94;100703.75;4875490;29;20056;-58
2022/12/15 08:28:05;;;;;;;30.47;12.00;;;;;;;2.95;38.54;100714.16;4894228;29;20066;-58
2022/12/15 08:30:32;;;;;;;32.33;10.77;;;;;;;2.97;38.83;100719.34;4894139;29;20041;-58
2022/12/15 08:32:57;;;;;;;27.60;11.87;;;;;;;2.98;39.22;100719.28;4890813;29;20049;-58
2022/12/15 08:35:23;;;;;;;32.10;11.07;;;;;;;3.03;40.08;100729.59;4876330;29;20109;-58
2022/12/15 08:37:49;;;;;;;25.47;11.87;;;;;;;3.06;39.33;100732.09;4892881;29;20033;-58
2022/12/15 08:40:14;;;;;;;24.67;10.27;;;;;;;3.09;39.29;100731.91;4876488;29;20037;-58
2022/12/15 08:42:40;;;;;;;23.57;10.93;;;;;;;3.10;39.03;100733.63;4875282;29;20056;-57
2022/12/15 08:45:06;;;;;;;30.90;10.67;;;;;;;3.16;39.62;100733.28;4891648;29;20040;-58
2022/12/15 08:47:31;;;;;;;29.80;12.67;;;;;;;3.24;38.58;100741.66;4892836;29;20044;-58
2022/12/15 08:49:57;;;;;;;34.83;11.17;;;;;;;3.30;38.76;100736.00;4876104;29;20076;-57
2022/12/15 08:52:22;;;;;;;28.43;11.27;;;;;;;3.39;38.91;100741.66;4890812;29;20037;-58
2022/12/15 08:54:48;;;;;;;35.23;11.30;;;;;;;3.43;39.79;100739.69;4891859;29;20049;-58
2022/12/15 08:57:13;;;;;;;39.90;13.00;;;;;;;3.55;39.28;100746.94;4875576;29;20076;-57
2022/12/15 08:59:39;;;;;;;32.43;10.80;;;;;;;3.63;40.03;100749.16;4875079;29;20051;-58
2022/12/15 09:02:04;;;;;;;30.07;11.30;;;;;;;3.70;40.65;100746.06;4891913;29;20045;-58
2022/12/15 09:04:30;;;;;;;24.63;10.90;;;;;;;3.74;40.71;100736.97;4874476;29;20104;-58
2022/12/15 09:06:55;;;;;;;33.20;11.90;;;;;;;3.83;39.49;100741.75;4890217;29;20056;-57
2022/12/15 09:09:21;;;;;;;29.63;13.07;;;;;;;3.93;40.62;100750.91;4892138;29;20048;-58
2022/12/15 09:11:47;;;;;;;28.00;11.33;;;;;;;3.98;39.33;100740.03;4892183;29;20084;-58
2022/12/15 09:14:12;;;;;;;29.47;12.47;;;;;;;4.06;39.55;100743.94;4890941;29;20048;-59
2022/12/15 09:16:37;;;;;;;37.90;12.70;;;;;;;4.12;39.46;100748.00;4891600;29;20039;-58
2022/12/15 09:19:03;;;;;;;27.77;12.23;;;;;;;4.13;39.67;100732.97;4874800;29;20037;-58
2022/12/15 09:21:29;;;;;;;38.83;12.53;;;;;;;4.25;40.67;100753.44;4875824;29;20571;-58
2022/12/15 09:23:59;;;;;;;29.27;11.80;;;;;;;4.35;40.92;100760.78;4891374;29;20033;-58
2022/12/15 09:26:25;;;;;;;26.80;12.32;;;;;;;4.43;40.66;100758.50;4890460;29;20033;-58
2022/12/15 09:28:53;;;;;;;29.38;12.07;;;;;;;4.52;40.38;100773.00;4891119;29;20036;-59
2022/12/15 09:31:31;;;;;;;28.15;11.27;;;;;;;4.59;39.40;100764.59;4890730;29;20407;-58
2022/12/15 09:33:57;;;;;;;37.70;12.27;;;;;;;4.74;39.08;100773.41;4894121;29;20073;-58
2022/12/15 09:36:23;;;;;;;30.88;12.13;;;;;;;4.92;40.54;100787.34;4894362;29;20045;-58
2022/12/15 09:38:49;;;;;;;24.80;11.35;;;;;;;5.06;39.39;100774.06;4893776;29;20037;-58
2022/12/15 09:41:14;;;;;;;24.17;10.55;;;;;;;5.29;40.20;100792.06;4877791;29;20060;-58
2022/12/15 09:43:58;;;;;;;32.00;11.15;;;;;;;5.53;40.37;100789.63;4911242;29;20028;-58
2022/12/15 09:46:36;;;;;;;33.25;11.70;;;;;;;5.79;40.10;100796.78;4909968;29;20037;-58
2022/12/15 09:49:08;;;;;;;30.63;11.98;;;;;;;6.02;39.92;100798.84;4909858;29;20040;-59
2022/12/15 09:51:38;;;;;;;28.73;12.38;;;;;;;6.26;40.16;100794.53;4877843;29;20037;-58
2022/12/15 09:54:04;;;;;;;30.63;12.35;;;;;;;6.53;40.03;100791.84;4876875;29;20036;-58
2022/12/15 09:56:49;;;;;;;28.65;12.52;;;;;;;6.84;40.15;100785.25;4860800;29;20036;-59
2022/12/15 09:59:25;;;;;;;24.60;11.30;;;;;;;7.14;39.60;100785.78;4891516;29;20024;-59
2022/12/15 10:02:05;;;;;;;23.95;10.95;;;;;;;7.46;39.77;100786.13;4909380;29;20037;-59
2022/12/15 10:05:07;;;;;;;32.30;12.13;;;;;;;7.79;39.41;100788.16;4907609;29;20033;-58
2022/12/15 10:07:36;;;;;;;30.05;11.60;;;;;;;8.07;40.27;100782.47;4865406;29;20040;-58
2022/12/15 10:10:31;;;;;;;32.88;11.90;;;;;;;8.31;39.36;100780.69;4892167;29;20043;-59
2022/12/15 10:13:02;;;;;;;31.17;12.98;;;;;;;8.55;39.58;100776.13;4877080;29;20044;-59
2022/12/15 10:15:30;;;;;;;28.58;13.10;;;;;;;8.80;39.47;100769.75;4891641;29;20032;-59
2022/12/15 10:18:00;;;;;;;25.23;10.73;;;;;;;9.08;40.37;100773.78;4892488;29;20108;-59
2022/12/15 10:20:27;;;;;;;29.83;11.63;;;;;;;9.25;40.16;100770.63;4892054;29;20061;-58
2022/12/15 10:22:56;;;;;;;29.52;11.73;;;;;;;9.44;38.96;100776.19;4909781;29;20096;-58
2022/12/15 10:25:25;;;;;;;30.33;13.07;;;;;;;9.60;39.12;100781.16;4892005;29;20073;-58
2022/12/15 10:28:12;;;;;;;27.25;11.77;;;;;;;9.70;38.89;100784.78;4876803;29;20100;-58
2022/12/15 10:30:44;;;;;;;25.77;11.43;;;;;;;9.89;39.11;100779.63;4908614;29;20037;-57
2022/12/15 10:33:18;;;;;;;31.42;12.10;;;;;;;10.06;38.73;100775.56;4888980;29;20049;-57
2022/12/15 10:35:45;;;;;;;25.85;10.85;;;;;;;10.19;38.41;100770.94;4889207;29;20033;-58
2022/12/15 10:38:39;;;;;;;28.58;11.07;;;;;;;10.37;38.50;100769.38;4873146;29;20040;-59
2022/12/15 10:41:24;;;;;;;26.27;12.07;;;;;;;10.58;38.65;100770.22;4889145;29;20040;-57
2022/12/15 10:43:51;;;;;;;27.58;11.70;;;;;;;10.78;38.26;100771.19;4888759;29;20044;-58
2022/12/15 10:46:18;;;;;;;21.00;12.30;;;;;;;11.00;38.58;100774.56;4873429;29;20040;-57
2022/12/15 10:48:49;;;;;;;21.80;11.07;;;;;;;11.27;38.13;100765.97;4893660;29;20033;-57
2022/12/15 10:51:29;;;;;;;28.00;12.85;;;;;;;11.53;37.32;100760.97;4891829;29;20040;-58
2022/12/15 10:54:02;;;;;;;28.08;11.63;;;;;;;11.82;37.28;100761.91;4894050;29;20559;-58
2022/12/15 10:56:28;;;;;;;30.38;13.60;;;;;;;12.01;37.32;100745.81;4893816;29;20025;-58
2022/12/15 10:58:55;;;;;;;25.65;11.52;;;;;;;12.25;36.89;100756.16;4893565;29;20388;-58
2022/12/15 11:01:26;;;;;;;29.08;11.95;;;;;;;12.39;36.49;100755.72;4878614;29;20033;-58
2022/12/15 11:03:53;;;;;;;27.23;11.68;;;;;;;12.55;37.26;100755.13;4879403;29;20041;-59
2022/12/15 11:06:21;;;;;;;21.90;10.52;;;;;;;12.71;36.47;100760.75;4880138;29;20033;-58
2022/12/15 11:08:49;;;;;;;23.58;11.57;;;;;;;12.87;36.87;100749.41;4894829;29;20037;-59
2022/12/15 11:14:19;;;;;;;23.77;10.52;;;;;;;13.18;37.01;100749.03;4894816;29;20078;-58
2022/12/15 11:16:56;;;;;;;26.40;11.77;;;;;;;13.34;35.85;100743.88;4879070;29;20033;-58
2022/12/15 11:19:47;;;;;;;26.60;12.43;;;;;;;13.48;36.26;100734.47;4893721;29;20041;-58
2022/12/15 11:22:40;;;;;;;30.85;11.15;;;;;;;13.59;35.92;100725.34;4893707;29;20065;-59
2022/12/15 11:25:13;;;;;;;24.15;11.20;;;;;;;13.67;36.09;100728.13;4894990;29;20048;-59
2022/12/15 11:27:42;;;;;;;32.45;11.07;;;;;;;13.76;35.74;100728.03;4894635;29;20033;-59
2022/12/15 11:30:21;;;;;;;21.65;10.23;;;;;;;13.83;35.77;100729.13;4877681;29;20084;-59
2022/12/15 11:32:54;;;;;;;23.15;11.65;;;;;;;13.87;36.11;100724.31;4896008;29;20051;-59
2022/12/15 11:35:26;;;;;;;21.45;11.05;;;;;;;13.86;35.01;100720.75;4896606;29;20043;-58
2022/12/15 11:38:01;;;;;;;20.02;10.10;;;;;;;13.87;35.03;100719.75;4881227;29;20039;-58
2022/12/15 11:40:39;;;;;;;21.85;10.98;;;;;;;13.97;35.89;100727.75;4895909;29;20040;-58
2022/12/15 11:43:42;;;;;;;22.08;9.63;;;;;;;14.02;34.85;100722.75;4895788;29;20045;-58
2022/12/15 11:46:19;;;;;;;19.60;9.77;;;;;;;14.03;34.47;100702.91;4912403;29;20039;-60
2022/12/15 11:48:44;;;;;;;20.67;9.95;;;;;;;14.12;36.09;100707.38;4895108;29;20044;-59
2022/12/15 11:51:21;;;;;;;20.63;10.48;;;;;;;14.15;34.82;100712.47;4895755;29;20040;-59
2022/12/15 11:53:50;;;;;;;17.83;9.18;;;;;;;14.20;34.51;100714.69;4895736;29;20036;-59
2022/12/15 11:56:27;;;;;;;23.42;10.15;;;;;;;14.22;34.21;100708.13;4912444;29;20398;-59
2022/12/15 11:59:20;;;;;;;19.00;9.48;;;;;;;14.24;35.25;100708.81;4880373;29;20024;-59
2022/12/15 12:01:57;;;;;;;21.17;8.82;;;;;;;14.22;34.10;100718.91;4879354;29;20037;-60
2022/12/15 12:04:22;;;;;;;23.00;10.70;;;;;;;14.20;35.03;100715.53;4895785;29;20088;-59
2022/12/15 12:06:53;;;;;;;19.65;9.75;;;;;;;14.19;34.00;100707.59;4895419;29;20032;-59
2022/12/15 12:09:38;;;;;;;19.73;9.63;;;;;;;14.13;34.09;100703.66;4880423;29;20064;-58
2022/12/15 12:12:31;;;;;;;21.63;9.48;;;;;;;14.13;34.59;100702.81;4911196;29;20045;-59
2022/12/15 12:15:11;;;;;;;21.75;8.80;;;;;;;14.10;34.04;100703.97;4911522;29;20077;-58
2022/12/15 12:18:00;;;;;;;15.93;8.65;;;;;;;14.09;34.26;100702.28;4894295;29;20096;-59
2022/12/15 12:20:37;;;;;;;19.45;9.65;;;;;;;14.09;35.19;100705.00;4894488;29;20092;-59
2022/12/15 12:23:24;;;;;;;21.52;8.63;;;;;;;14.09;33.93;100704.13;4894894;29;20033;-60
2022/12/15 12:25:58;;;;;;;16.17;7.90;;;;;;;14.06;33.90;100705.28;4900778;29;20542;-59
2022/12/15 12:28:33;;;;;;;17.17;7.72;;;;;;;14.07;34.52;100704.28;4878605;29;20044;-58
2022/12/15 12:30:59;;;;;;;16.85;7.85;;;;;;;14.04;33.84;100698.38;4894767;29;20482;-59
2022/12/15 12:33:35;;;;;;;18.50;7.05;;;;;;;13.97;33.76;100688.22;4878909;29;20096;-58
2022/12/15 12:36:12;;;;;;;13.63;6.45;;;;;;;13.96;33.83;100685.66;4894775;29;20052;-58
2022/12/15 12:38:45;;;;;;;18.48;6.90;;;;;;;13.95;34.22;100686.69;4880433;29;20064;-59
2022/12/15 12:41:22;;;;;;;18.83;8.13;;;;;;;14.01;33.47;100688.75;4895954;29;20052;-62
2022/12/15 12:43:51;;;;;;;16.35;7.68;;;;;;;14.00;34.31;100670.91;4895329;29;20056;-59
2022/12/15 12:46:36;;;;;;;16.17;7.53;;;;;;;14.05;33.54;100676.66;4879327;29;20036;-59
2022/12/15 12:49:11;;;;;;;16.02;7.47;;;;;;;14.07;33.57;100671.97;4894343;29;20115;-59
2022/12/15 12:51:39;;;;;;;13.27;6.72;;;;;;;14.07;34.02;100658.50;4878294;29;20037;-59
2022/12/15 12:54:33;;;;;;;14.20;7.05;;;;;;;14.13;33.73;100657.88;4893861;29;20040;-63
2022/12/15 12:56:59;;;;;;;17.02;7.95;;;;;;;14.15;33.93;100653.19;4911090;29;20065;-59
2022/12/15 12:59:27;;;;;;;13.60;6.88;;;;;;;14.20;33.92;100656.25;4893918;29;20032;-59
2022/12/15 13:01:56;;;;;;;13.85;6.78;;;;;;;14.22;33.98;100645.31;4910547;29;20088;-59
2022/12/15 13:04:27;;;;;;;15.60;7.00;;;;;;;14.25;33.91;100636.91;4893223;29;20043;-59
2022/12/15 13:07:06;;;;;;;16.23;7.38;;;;;;;14.26;33.48;100636.78;4893393;29;20040;-59
2022/12/15 13:09:42;;;;;;;13.52;6.97;;;;;;;14.26;34.49;100634.09;4877550;29;20051;-59
2022/12/15 13:12:33;;;;;;;15.48;7.78;;;;;;;14.29;34.52;100633.75;4893321;29;20037;-58
2022/12/15 13:14:59;;;;;;;12.07;6.97;;;;;;;14.32;34.22;100627.25;4893291;29;20036;-59
2022/12/15 13:17:31;;;;;;;13.73;6.70;;;;;;;14.34;33.55;100615.31;4892530;29;20106;-58
2022/12/15 13:19:57;;;;;;;16.88;7.72;;;;;;;14.41;33.33;100613.66;4877167;29;20048;-58
2022/12/15 13:22:30;;;;;;;16.85;7.05;;;;;;;14.43;33.41;100602.72;4909240;29;20128;-58
2022/12/15 13:24:56;;;;;;;13.85;7.47;;;;;;;14.55;34.42;100617.59;4908463;29;20487;-58
2022/12/15 13:27:22;;;;;;;17.95;8.02;;;;;;;14.67;33.71;100602.00;4893284;29;20051;-58
2022/12/15 13:30:00;;;;;;;23.02;9.23;;;;;;;14.83;33.36;100602.06;4892594;29;20116;-58
2022/12/15 13:32:35;;;;;;;18.27;8.02;;;;;;;15.04;33.73;100597.97;4875908;29;20035;-58
2022/12/15 13:35:22;;;;;;;20.27;8.90;;;;;;;15.34;35.32;100593.81;4891122;29;20088;-59
2022/12/15 13:37:54;;;;;;;24.85;10.48;;;;;;;15.85;35.08;100587.34;4892607;29;20056;-60
2022/12/15 13:40:35;;;;;;;28.50;10.85;;;;;;;16.62;35.35;100592.13;4903024;29;20480;-59
2022/12/15 13:43:03;;;;;;;18.10;10.85;;;;;;;18.10;34.58;100581.91;4908176;29;20140;-59
2022/12/15 13:45:47;;;;;;;18.27;10.48;;;;;;;20.57;31.65;100588.81;4907779;29;20406;-59
2022/12/15 13:48:13;;;;;;;20.30;11.38;;;;;;;22.82;29.79;100576.25;4907847;29;20048;-60
2022/12/15 13:50:44;;;;;;;22.50;11.77;;;;;;;24.03;28.33;100570.56;4907927;29;20036;-60
2022/12/15 13:53:16;;;;;;;18.92;11.30;;;;;;;24.60;28.04;100566.66;4891820;29;20024;-59
2022/12/15 13:56:02;;;;;;;15.70;9.80;;;;;;;24.90;27.41;100550.34;4906875;29;20068;-60